Time;durP1;ratioP1;P1;durP2;ratioP2;P2;SDS_P1;SDS_P2;PMS_P1;PMS_P2;Temp;Humidity;BMP_temperature;BMP_pressure;BME280_temperature;BME280_humidity;BME280_pressure;Samples;Min_cycle;Max_cycle;Signal;HPM_P1;HPM_P2
2023/03/27 00:01:14;;;;;;;4.05;1.13;;;2.50;99.90;;;;;;5075378;28;20051;-37
2023/03/27 00:03:41;;;;;;;4.72;0.70;;;2.40;99.90;;;;;;5077191;28;20052;-37
2023/03/27 00:06:15;;;;;;;2.38;0.45;;;2.40;99.90;;;;;;5081009;28;20179;-37
2023/03/27 00:08:41;;;;;;;4.47;0.60;;;2.50;99.90;;;;;;5076398;28;20058;-37
2023/03/27 00:11:08;;;;;;;3.72;0.55;;;2.50;99.90;;;;;;5076146;28;20075;-37
2023/03/27 00:13:35;;;;;;;3.40;0.55;;;2.60;99.90;;;;;;5079689;28;20058;-37
2023/03/27 00:16:01;;;;;;;3.92;0.50;;;2.70;99.90;;;;;;5078523;28;20485;-37
2023/03/27 00:18:28;;;;;;;4.43;0.85;;;2.70;99.90;;;;;;5079332;28;20052;-37
2023/03/27 00:20:57;;;;;;;6.05;0.50;;;2.70;99.90;;;;;;5081558;28;20048;-37
2023/03/27 00:23:23;;;;;;;3.95;0.50;;;2.70;99.90;;;;;;5077139;28;20497;-36
2023/03/27 00:25:49;;;;;;;2.53;0.35;;;2.70;99.90;;;;;;5079556;28;20052;-38
2023/03/27 00:28:17;;;;;;;6.38;0.85;;;2.70;99.90;;;;;;5078864;28;20561;-38
2023/03/27 00:30:43;;;;;;;1.83;0.30;;;2.70;99.90;;;;;;5071222;28;20049;-39
2023/03/27 00:33:12;;;;;;;3.42;0.32;;;2.70;99.90;;;;;;5074729;28;20048;-42
2023/03/27 00:35:43;;;;;;;6.05;0.57;;;2.70;99.90;;;;;;5085287;28;20052;-36
2023/03/27 00:38:09;;;;;;;4.60;0.40;;;2.70;99.90;;;;;;5079322;28;20075;-36
2023/03/27 00:40:36;;;;;;;3.30;0.40;;;2.60;99.90;;;;;;5066865;28;20078;-37
2023/03/27 00:43:27;;;;;;;2.22;0.45;;;2.60;99.90;;;;;;5075870;28;20079;-36
2023/03/27 00:46:01;;;;;;;1.25;0.38;;;2.60;99.90;;;;;;5083190;28;20623;-37
2023/03/27 00:48:30;;;;;;;5.65;0.90;;;2.60;99.90;;;;;;5076949;28;20099;-37
2023/03/27 00:50:56;;;;;;;2.25;0.50;;;2.50;99.90;;;;;;5080563;28;20139;-37
2023/03/27 00:53:25;;;;;;;0.70;0.30;;;2.50;99.90;;;;;;5080815;28;20722;-37
2023/03/27 00:55:54;;;;;;;3.60;0.50;;;2.50;99.90;;;;;;5082126;28;20131;-37
2023/03/27 00:58:28;;;;;;;2.88;0.40;;;2.50;99.90;;;;;;5075630;28;20062;-39
2023/03/27 01:00:55;;;;;;;1.70;0.20;;;2.50;99.90;;;;;;5076047;28;20056;-36
2023/03/27 01:03:25;;;;;;;2.10;0.93;;;2.50;99.90;;;;;;5076497;28;20052;-36
2023/03/27 01:05:53;;;;;;;2.50;0.32;;;2.40;99.90;;;;;;5078437;28;20490;-38
2023/03/27 01:08:19;;;;;;;2.20;0.45;;;2.40;99.90;;;;;;5081929;28;20673;-37
2023/03/27 01:10:56;;;;;;;1.40;0.20;;;2.40;99.90;;;;;;5081806;28;20048;-37
2023/03/27 01:13:43;;;;;;;4.65;0.45;;;2.40;99.90;;;;;;5063081;28;20766;-37
2023/03/27 01:16:45;;;;;;;7.18;0.73;;;2.30;99.90;;;;;;5080068;28;20056;-37
2023/03/27 01:19:48;;;;;;;1.80;0.20;;;2.30;99.90;;;;;;5078254;28;20186;-37
2023/03/27 01:22:38;;;;;;;2.42;0.20;;;2.30;99.90;;;;;;5076355;28;20039;-37
2023/03/27 01:25:16;;;;;;;4.97;0.57;;;2.30;99.90;;;;;;5080592;28;20051;-37
2023/03/27 01:28:07;;;;;;;1.50;0.30;;;2.20;99.90;;;;;;5078649;28;20405;-36
2023/03/27 01:30:47;;;;;;;4.57;0.50;;;2.20;99.90;;;;;;5082181;28;20055;-44
2023/03/27 01:33:30;;;;;;;4.20;0.80;;;2.20;99.90;;;;;;5079950;28;20078;-36
2023/03/27 01:36:48;;;;;;;11.35;0.90;;;2.10;99.90;;;;;;5078334;28;20052;-36
2023/03/27 01:39:13;;;;;;;4.82;0.32;;;2.10;99.90;;;;;;5025871;28;20054;-36
2023/03/27 01:42:02;;;;;;;8.43;0.57;;;2.10;99.90;;;;;;5083490;28;20573;-36
2023/03/27 01:44:31;;;;;;;4.18;0.55;;;2.10;99.90;;;;;;5069188;28;20155;-36
2023/03/27 01:47:27;;;;;;;3.85;0.50;;;2.00;99.90;;;;;;5085607;28;20402;-36
2023/03/27 01:50:09;;;;;;;2.90;0.30;;;2.00;99.90;;;;;;5062202;28;20059;-36
2023/03/27 01:52:39;;;;;;;4.38;0.82;;;2.00;99.90;;;;;;5076200;28;20048;-36
2023/03/27 01:55:11;;;;;;;1.65;0.50;;;2.00;99.90;;;;;;5081581;28;20044;-36
2023/03/27 01:58:06;;;;;;;6.03;0.85;;;2.00;99.90;;;;;;5077952;28;20052;-36
2023/03/27 02:00:34;;;;;;;7.53;0.75;;;2.00;99.90;;;;;;5075507;28;20063;-36
2023/03/27 02:03:14;;;;;;;3.80;0.70;;;2.00;99.90;;;;;;5081327;28;20040;-40
2023/03/27 02:05:55;;;;;;;4.97;0.85;;;2.00;99.90;;;;;;5058182;28;20063;-36
2023/03/27 02:08:28;;;;;;;3.92;0.50;;;2.00;99.90;;;;;;5077074;28;20043;-36
2023/03/27 02:26:22;;;;;;;1.58;0.20;;;2.10;99.90;;;;;;5079043;28;20074;-36
2023/03/27 02:29:24;;;;;;;2.05;0.40;;;2.10;99.90;;;;;;5076923;28;20044;-36
2023/03/27 02:32:09;;;;;;;7.22;0.35;;;2.10;99.90;;;;;;5078123;28;20096;-36
2023/03/27 02:35:01;;;;;;;2.85;0.38;;;2.10;99.90;;;;;;5077260;28;20060;-37
2023/03/27 02:37:35;;;;;;;5.60;0.95;;;2.10;99.90;;;;;;5077571;28;20047;-36
2023/03/27 02:40:44;;;;;;;3.90;0.40;;;2.10;99.90;;;;;;5079677;28;20078;-38
2023/03/27 02:43:31;;;;;;;4.72;0.40;;;2.10;99.90;;;;;;5074964;28;20059;-36
2023/03/27 02:46:25;;;;;;;1.67;0.28;;;2.10;99.90;;;;;;5076347;28;20059;-37
2023/03/27 02:48:58;;;;;;;5.15;0.50;;;2.10;99.90;;;;;;5074696;28;20063;-37
2023/03/27 02:51:23;;;;;;;;;;;2.20;99.90;;;;;;5078957;28;20055;-37
2023/03/27 02:54:07;;;;;;;3.80;0.30;;;2.20;99.90;;;;;;5078736;28;19931;-36
2023/03/27 02:56:38;;;;;;;3.67;0.38;;;2.30;99.90;;;;;;5077805;28;20075;-36
2023/03/27 02:59:09;;;;;;;1.40;0.20;;;2.30;99.90;;;;;;5061830;28;20133;-35
2023/03/27 03:01:36;;;;;;;3.40;0.20;;;2.40;99.90;;;;;;5060556;28;20145;-35
2023/03/27 03:04:10;;;;;;;1.02;0.38;;;2.40;99.90;;;;;;5079529;28;20041;-35
2023/03/27 03:06:36;;;;;;;2.85;0.20;;;2.40;99.90;;;;;;5079593;28;20068;-35
2023/03/27 03:09:05;;;;;;;2.97;0.30;;;2.40;99.90;;;;;;5075413;28;20055;-37
2023/03/27 03:11:36;;;;;;;0.93;0.20;;;2.30;99.90;;;;;;5083839;28;20048;-39
2023/03/27 03:14:02;;;;;;;4.43;0.30;;;2.30;99.90;;;;;;5081258;28;20572;-39
2023/03/27 03:16:29;;;;;;;3.03;0.63;;;2.20;99.90;;;;;;5080590;28;20048;-38
2023/03/27 03:18:55;;;;;;;1.98;0.20;;;2.20;99.90;;;;;;5079578;28;20614;-38
2023/03/27 03:21:22;;;;;;;2.17;0.30;;;2.20;99.90;;;;;;5077393;28;20055;-38
2023/03/27 03:23:47;;;;;;;3.33;0.43;;;2.10;99.90;;;;;;5079699;28;20501;-37
2023/03/27 03:26:15;;;;;;;2.97;0.40;;;2.10;99.90;;;;;;5076944;28;20095;-37
2023/03/27 03:28:42;;;;;;;6.00;0.40;;;2.10;99.90;;;;;;5078352;28;20044;-35
2023/03/27 03:31:09;;;;;;;5.80;0.52;;;2.10;99.90;;;;;;5073632;28;20044;-36
2023/03/27 03:33:36;;;;;;;2.42;0.30;;;2.10;99.90;;;;;;5043261;28;20071;-35
2023/03/27 03:36:02;;;;;;;1.45;0.20;;;2.20;99.90;;;;;;5079528;28;20039;-35
2023/03/27 03:38:29;;;;;;;2.42;0.40;;;2.30;99.90;;;;;;5079974;28;20051;-35
2023/03/27 03:40:57;;;;;;;2.05;0.30;;;2.40;99.90;;;;;;5060259;28;20612;-35
2023/03/27 03:43:27;;;;;;;2.28;0.30;;;2.50;99.90;;;;;;5080333;28;20145;-35
2023/03/27 03:45:53;;;;;;;2.03;0.47;;;2.50;99.90;;;;;;5077761;28;20059;-36
2023/03/27 03:48:20;;;;;;;1.17;0.30;;;2.60;99.90;;;;;;5076044;28;20419;-37
2023/03/27 03:50:47;;;;;;;1.33;0.20;;;2.50;99.90;;;;;;5076693;28;20055;-35
2023/03/27 03:53:15;;;;;;;2.55;0.30;;;2.50;99.90;;;;;;5080102;28;20504;-36
2023/03/27 03:55:41;;;;;;;3.60;0.30;;;2.50;99.90;;;;;;5078919;28;20043;-35
2023/03/27 03:58:07;;;;;;;1.77;0.20;;;2.40;99.90;;;;;;5077529;28;20052;-36
2023/03/27 04:00:37;;;;;;;1.90;0.17;;;2.40;99.90;;;;;;5078956;28;20056;-36
2023/03/27 04:03:05;;;;;;;1.40;0.30;;;2.30;99.90;;;;;;5076681;28;20062;-36
2023/03/27 04:05:31;;;;;;;1.30;0.20;;;2.30;99.90;;;;;;5077937;28;20504;-35
2023/03/27 04:08:01;;;;;;;1.17;0.13;;;2.20;99.90;;;;;;5080322;28;20044;-36
2023/03/27 04:10:27;;;;;;;1.35;0.22;;;2.10;99.90;;;;;;5080152;28;20410;-36
2023/03/27 04:12:53;;;;;;;2.65;0.40;;;2.10;99.90;;;;;;5063429;28;20509;-36
2023/03/27 04:15:19;;;;;;;0.82;0.20;;;2.00;99.90;;;;;;5080064;28;20104;-35
2023/03/27 04:17:47;;;;;;;2.22;0.30;;;2.00;99.90;;;;;;5065996;28;20394;-35
2023/03/27 04:20:13;;;;;;;6.45;0.70;;;1.90;99.90;;;;;;5081284;28;20071;-37
2023/03/27 04:22:45;;;;;;;2.97;0.40;;;1.90;99.90;;;;;;5084002;28;20050;-36
2023/03/27 04:25:12;;;;;;;3.50;0.40;;;1.90;99.90;;;;;;5083641;28;20052;-36
2023/03/27 04:27:38;;;;;;;1.77;0.20;;;1.80;99.90;;;;;;5089179;28;20043;-35
2023/03/27 04:30:12;;;;;;;1.80;0.30;;;1.80;99.90;;;;;;5084444;28;20498;-36
2023/03/27 04:32:38;;;;;;;2.10;0.25;;;1.80;99.90;;;;;;5081806;28;20048;-36
2023/03/27 04:35:04;;;;;;;5.15;1.02;;;1.80;99.90;;;;;;5086342;28;20161;-35
2023/03/27 04:37:30;;;;;;;1.88;0.38;;;1.70;99.90;;;;;;5078690;28;20051;-35
2023/03/27 04:39:57;;;;;;;4.28;0.30;;;1.80;99.90;;;;;;5084742;28;20047;-36
2023/03/27 04:42:23;;;;;;;2.30;0.30;;;1.80;99.90;;;;;;5083450;28;20043;-36
2023/03/27 04:44:51;;;;;;;4.35;0.38;;;1.80;99.90;;;;;;5068233;28;20451;-35
2023/03/27 04:47:19;;;;;;;3.45;0.40;;;1.80;99.90;;;;;;5082494;28;20575;-35
2023/03/27 04:49:49;;;;;;;3.45;0.50;;;1.80;99.90;;;;;;5083146;28;20151;-35
2023/03/27 04:52:16;;;;;;;2.53;0.30;;;1.90;99.90;;;;;;5083120;28;20044;-35
2023/03/27 04:54:42;;;;;;;2.25;0.57;;;1.90;99.90;;;;;;5085042;28;20047;-35
2023/03/27 04:57:08;;;;;;;4.47;0.60;;;1.90;99.90;;;;;;5081903;28;20432;-37
2023/03/27 04:59:35;;;;;;;2.90;0.40;;;1.90;99.90;;;;;;5083720;28;20056;-36
2023/03/27 05:02:02;;;;;;;1.92;0.32;;;1.90;99.90;;;;;;5083353;28;20493;-36
2023/03/27 05:04:29;;;;;;;3.90;0.60;;;1.90;99.90;;;;;;5089236;28;20097;-36
2023/03/27 05:06:56;;;;;;;6.32;0.30;;;1.80;99.90;;;;;;5085843;28;20055;-36
2023/03/27 05:09:22;;;;;;;3.10;0.68;;;1.90;99.90;;;;;;5061257;28;20052;-36
2023/03/27 05:11:49;;;;;;;2.22;0.50;;;1.90;99.90;;;;;;5087018;28;20044;-36
2023/03/27 05:14:16;;;;;;;2.55;0.60;;;1.90;99.90;;;;;;5079306;28;20194;-35
2023/03/27 05:16:42;;;;;;;2.25;0.80;;;2.00;99.90;;;;;;5060636;28;20040;-36
2023/03/27 05:19:08;;;;;;;3.30;0.40;;;2.00;99.90;;;;;;5059176;28;20567;-36
2023/03/27 05:21:34;;;;;;;5.20;1.33;;;2.00;99.90;;;;;;5059390;28;20052;-37
2023/03/27 05:23:59;;;;;;;3.05;0.60;;;2.10;99.90;;;;;;5082481;28;20071;-36
2023/03/27 05:26:25;;;;;;;4.97;0.50;;;2.10;99.90;;;;;;5077002;28;20083;-35
2023/03/27 05:28:53;;;;;;;3.20;0.40;;;2.20;99.90;;;;;;5081826;28;20051;-37
2023/03/27 05:31:19;;;;;;;4.13;0.40;;;2.20;99.90;;;;;;5074533;28;20044;-35
2023/03/27 05:33:44;;;;;;;1.48;0.50;;;2.20;99.90;;;;;;5080043;28;20056;-36
2023/03/27 05:36:10;;;;;;;3.58;0.52;;;2.20;99.90;;;;;;5068184;28;20048;-36
2023/03/27 05:38:36;;;;;;;4.30;0.60;;;2.20;99.90;;;;;;5069536;28;20410;-36
2023/03/27 05:41:03;;;;;;;2.20;0.52;;;2.20;99.90;;;;;;5072265;28;20048;-36
2023/03/27 05:43:28;;;;;;;5.07;0.70;;;2.10;99.90;;;;;;5073917;28;20044;-36
2023/03/27 05:45:54;;;;;;;4.85;0.98;;;2.10;99.90;;;;;;5074777;28;20057;-36
2023/03/27 05:48:20;;;;;;;4.72;0.77;;;2.10;99.90;;;;;;5075231;28;20052;-35
2023/03/27 05:50:45;;;;;;;4.07;0.70;;;2.10;99.90;;;;;;5074010;28;20040;-35
2023/03/27 05:53:11;;;;;;;3.35;0.45;;;2.10;99.90;;;;;;5068027;28;21155;-35
2023/03/27 05:55:38;;;;;;;6.65;1.02;;;2.10;99.90;;;;;;5069109;28;20051;-35
2023/03/27 05:58:08;;;;;;;2.88;0.70;;;2.10;99.90;;;;;;5078974;28;20050;-36
2023/03/27 06:00:35;;;;;;;4.03;0.70;;;2.20;99.90;;;;;;5073652;28;20120;-36
2023/03/27 06:03:02;;;;;;;3.88;0.50;;;2.30;99.90;;;;;;5073717;28;20461;-36
2023/03/27 06:05:28;;;;;;;4.20;0.63;;;2.40;99.90;;;;;;5073329;28;20056;-36
2023/03/27 06:07:57;;;;;;;3.95;0.38;;;2.50;99.90;;;;;;5079977;28;20097;-36
2023/03/27 06:10:25;;;;;;;4.65;0.47;;;2.60;99.90;;;;;;5072909;28;20535;-35
2023/03/27 06:13:07;;;;;;;2.53;0.28;;;2.60;99.90;;;;;;5076899;28;20047;-37
2023/03/27 06:15:33;;;;;;;2.47;0.60;;;2.60;99.90;;;;;;5074776;28;20518;-36
2023/03/27 06:17:59;;;;;;;5.20;0.50;;;2.60;99.90;;;;;;5074441;28;20325;-36
2023/03/27 06:20:26;;;;;;;4.00;0.50;;;2.70;99.90;;;;;;5072375;28;20386;-35
2023/03/27 06:23:00;;;;;;;6.30;0.55;;;2.70;99.90;;;;;;5075596;28;20047;-35
2023/03/27 06:25:30;;;;;;;1.98;0.43;;;2.70;99.90;;;;;;5078552;28;20047;-35
2023/03/27 06:27:55;;;;;;;3.80;0.60;;;2.80;99.90;;;;;;5077033;28;20879;-35
2023/03/27 06:30:23;;;;;;;2.90;0.40;;;2.80;99.90;;;;;;5079031;28;20467;-36
2023/03/27 06:32:52;;;;;;;2.83;0.57;;;2.80;99.90;;;;;;5079051;28;20390;-35
2023/03/27 06:35:19;;;;;;;5.10;0.55;;;2.90;99.90;;;;;;5074146;28;20047;-38
2023/03/27 06:37:49;;;;;;;2.35;0.47;;;2.90;99.90;;;;;;5073268;28;20048;-39
2023/03/27 06:40:23;;;;;;;4.25;0.35;;;3.00;99.90;;;;;;5058979;28;20143;-38
2023/03/27 06:42:57;;;;;;;8.98;0.50;;;3.00;99.90;;;;;;5080131;28;20052;-40
2023/03/27 06:45:28;;;;;;;3.35;0.47;;;3.00;99.90;;;;;;5060190;28;20055;-38
2023/03/27 06:47:59;;;;;;;3.63;0.20;;;3.00;99.90;;;;;;5075006;28;20063;-39
2023/03/27 06:50:27;;;;;;;2.70;0.32;;;3.10;99.90;;;;;;5078548;28;20245;-39
2023/03/27 06:52:53;;;;;;;3.08;0.40;;;3.10;99.90;;;;;;5081063;28;20079;-38
2023/03/27 06:55:21;;;;;;;2.75;0.32;;;3.20;99.90;;;;;;5070253;28;20048;-38
2023/03/27 06:57:49;;;;;;;1.38;0.20;;;3.20;99.90;;;;;;5077556;28;20055;-38
2023/03/27 07:00:17;;;;;;;6.10;0.50;;;3.30;99.90;;;;;;5071998;28;20539;-39
2023/03/27 07:02:46;;;;;;;3.15;0.63;;;3.30;99.90;;;;;;5079505;28;20505;-39
2023/03/27 07:05:13;;;;;;;4.72;0.50;;;3.40;99.90;;;;;;5063414;28;20493;-39
2023/03/27 07:07:39;;;;;;;3.78;0.60;;;3.40;99.90;;;;;;5077547;28;20064;-39
2023/03/27 07:10:06;;;;;;;2.33;0.30;;;3.50;99.90;;;;;;5078587;28;20482;-38
2023/03/27 07:12:33;;;;;;;4.80;0.47;;;3.60;99.90;;;;;;5073154;28;20498;-38
2023/03/27 07:14:58;;;;;;;5.90;1.20;;;3.60;99.90;;;;;;5076861;28;20055;-39
2023/03/27 07:17:24;;;;;;;4.00;0.90;;;3.70;99.90;;;;;;5075436;28;20670;-39
2023/03/27 07:19:50;;;;;;;7.15;1.10;;;3.80;99.90;;;;;;5080235;28;20048;-38
2023/03/27 07:22:16;;;;;;;9.85;0.90;;;3.80;99.90;;;;;;5068874;28;20608;-39
2023/03/27 07:24:41;;;;;;;10.98;1.63;;;3.90;99.90;;;;;;5075110;28;20116;-39
2023/03/27 07:27:07;;;;;;;3.65;0.70;;;3.90;99.90;;;;;;5074897;28;20256;-40
2023/03/27 07:29:33;;;;;;;5.43;0.82;;;4.00;99.90;;;;;;5077548;28;20056;-38
2023/03/27 07:31:59;;;;;;;3.97;0.60;;;4.00;99.90;;;;;;5077195;28;20132;-39
2023/03/27 07:34:26;;;;;;;4.15;0.95;;;4.10;99.90;;;;;;5080761;28;20116;-39
2023/03/27 07:36:51;;;;;;;4.97;0.35;;;4.20;99.90;;;;;;5077307;28;20054;-38
2023/03/27 07:39:17;;;;;;;4.88;0.50;;;4.20;99.90;;;;;;5076807;28;20409;-40
2023/03/27 07:41:43;;;;;;;6.97;0.55;;;4.30;99.90;;;;;;5080893;28;20366;-39
2023/03/27 07:44:08;;;;;;;4.57;0.57;;;4.40;99.90;;;;;;5078597;28;20608;-39
2023/03/27 07:46:34;;;;;;;4.25;0.40;;;4.40;99.90;;;;;;5074929;28;20565;-40
2023/03/27 07:49:00;;;;;;;2.80;0.50;;;4.50;99.90;;;;;;5076367;28;20104;-38
2023/03/27 07:51:26;;;;;;;3.58;0.40;;;4.60;99.90;;;;;;5079504;28;20051;-38
2023/03/27 07:53:57;;;;;;;7.10;0.82;;;4.60;99.90;;;;;;5078687;28;20122;-38
2023/03/27 07:56:23;;;;;;;4.38;0.65;;;4.70;99.90;;;;;;5076085;28;20044;-39
2023/03/27 07:58:50;;;;;;;3.78;0.40;;;4.80;99.90;;;;;;5070511;28;20055;-39
2023/03/27 08:01:16;;;;;;;5.68;0.50;;;4.90;99.90;;;;;;5078389;28;20052;-38
2023/03/27 08:03:42;;;;;;;4.85;0.60;;;4.90;99.90;;;;;;5080344;28;20047;-38
2023/03/27 08:06:08;;;;;;;7.40;0.68;;;5.00;99.90;;;;;;5059456;28;20063;-40
2023/03/27 08:08:33;;;;;;;3.58;0.70;;;5.10;99.90;;;;;;5075897;28;20052;-39
2023/03/27 08:11:01;;;;;;;4.55;0.90;;;5.10;99.90;;;;;;5080307;28;20079;-37
2023/03/27 08:13:27;;;;;;;4.38;1.10;;;5.20;99.90;;;;;;5078455;28;20059;-37
2023/03/27 08:16:11;;;;;;;5.90;0.95;;;5.30;99.90;;;;;;5075036;28;20052;-37
2023/03/27 08:18:37;;;;;;;4.65;0.45;;;5.40;99.90;;;;;;5078161;28;20060;-37
2023/03/27 08:21:05;;;;;;;3.40;0.68;;;5.50;99.90;;;;;;5076470;28;20456;-37
2023/03/27 08:23:32;;;;;;;3.92;0.70;;;5.60;99.90;;;;;;5075086;28;20055;-37
2023/03/27 08:25:59;;;;;;;5.05;0.70;;;5.70;99.90;;;;;;5071644;28;20052;-46
2023/03/27 08:28:29;;;;;;;3.25;0.50;;;5.80;99.90;;;;;;5077943;28;20136;-37
2023/03/27 08:30:55;;;;;;;2.08;0.60;;;6.00;99.90;;;;;;5078805;28;20056;-37
2023/03/27 08:33:22;;;;;;;4.22;0.43;;;6.20;99.90;;;;;;5076017;28;20048;-37
2023/03/27 08:35:48;;;;;;;3.83;0.40;;;6.20;99.90;;;;;;5073266;28;20040;-37
2023/03/27 08:38:14;;;;;;;1.85;0.28;;;6.30;99.90;;;;;;5078899;28;20211;-37
2023/03/27 08:40:49;;;;;;;3.58;0.32;;;6.30;99.90;;;;;;5075660;28;20051;-37
2023/03/27 08:43:21;;;;;;;3.10;0.50;;;6.20;99.90;;;;;;5075098;28;20401;-37
2023/03/27 08:45:57;;;;;;;1.80;0.10;;;6.20;99.90;;;;;;5075439;28;20102;-37
2023/03/27 08:48:30;;;;;;;2.05;0.13;;;6.20;99.90;;;;;;5078096;28;20481;-37
2023/03/27 08:51:02;;;;;;;1.27;0.20;;;6.10;99.90;;;;;;5075583;28;20052;-37
2023/03/27 08:53:36;;;;;;;7.50;0.47;;;6.00;99.90;;;;;;5071313;28;20044;-37
2023/03/27 08:56:02;;;;;;;1.40;0.22;;;6.00;99.90;;;;;;5079099;28;20244;-37
2023/03/27 08:58:29;;;;;;;3.30;0.60;;;5.90;99.90;;;;;;5076889;28;20044;-37
2023/03/27 09:01:17;;;;;;;4.32;0.95;;;5.90;99.90;;;;;;5077048;28;20055;-38
2023/03/27 09:03:57;;;;;;;2.05;0.43;;;5.80;99.90;;;;;;5082108;28;21219;-36
2023/03/27 09:06:44;;;;;;;3.72;0.50;;;5.80;99.90;;;;;;5083748;28;20098;-37
2023/03/27 09:09:41;;;;;;;3.83;0.80;;;5.90;99.90;;;;;;5080138;28;20101;-36
2023/03/27 09:12:30;;;;;;;4.32;0.90;;;5.90;99.90;;;;;;5062468;28;20067;-36
2023/03/27 09:15:14;;;;;;;2.08;0.68;;;5.90;99.90;;;;;;5057921;28;20391;-36
2023/03/27 09:17:50;;;;;;;3.55;0.80;;;6.00;99.90;;;;;;5082819;28;20056;-36
2023/03/27 09:20:55;;;;;;;4.28;0.80;;;6.10;99.90;;;;;;5081793;28;20122;-36
2023/03/27 09:23:30;;;;;;;7.30;0.63;;;6.30;99.90;;;;;;5069031;28;20498;-36
2023/03/27 09:26:24;;;;;;;2.25;0.30;;;6.40;99.90;;;;;;5079663;28;20048;-36
2023/03/27 09:29:01;;;;;;;4.65;0.50;;;6.50;99.90;;;;;;5063628;28;20055;-35
2023/03/27 09:31:33;;;;;;;3.33;0.60;;;6.60;99.90;;;;;;5075744;28;20568;-35
2023/03/27 09:34:10;;;;;;;3.58;0.75;;;6.60;99.90;;;;;;5081366;28;20062;-37
2023/03/27 09:36:37;;;;;;;4.47;0.68;;;6.60;99.90;;;;;;5072713;28;20056;-37
2023/03/27 09:39:11;;;;;;;3.17;0.30;;;6.40;99.90;;;;;;5079733;28;20547;-36
2023/03/27 09:41:50;;;;;;;2.47;0.38;;;6.30;99.90;;;;;;5077433;28;20650;-40
2023/03/27 09:44:33;;;;;;;5.25;0.80;;;6.10;99.90;;;;;;5079078;28;20059;-41
2023/03/27 09:47:09;;;;;;;5.63;0.82;;;6.00;99.90;;;;;;5074120;28;20052;-40
2023/03/27 09:49:39;;;;;;;4.00;0.57;;;5.90;99.90;;;;;;5080083;28;20062;-40
2023/03/27 09:52:06;;;;;;;6.95;0.80;;;6.00;99.90;;;;;;5075957;28;20494;-41
2023/03/27 09:54:50;;;;;;;11.52;1.10;;;6.20;99.90;;;;;;5078321;28;22022;-41
2023/03/27 09:57:16;;;;;;;4.13;0.57;;;6.40;99.90;;;;;;5079730;28;20056;-42
2023/03/27 10:00:00;;;;;;;7.35;1.25;;;6.60;99.90;;;;;;5071620;28;20063;-44
2023/03/27 10:02:28;;;;;;;3.70;0.35;;;6.70;99.90;;;;;;5075880;28;20414;-40
2023/03/27 10:05:10;;;;;;;5.57;0.50;;;6.80;99.90;;;;;;5080602;28;20112;-44
2023/03/27 10:07:38;;;;;;;5.32;0.90;;;7.00;99.90;;;;;;5082939;28;20097;-39
2023/03/27 10:10:14;;;;;;;4.05;1.27;;;7.30;99.90;;;;;;5074388;28;20049;-39
2023/03/27 10:12:41;;;;;;;4.80;0.73;;;7.50;99.90;;;;;;5080895;28;20110;-38
2023/03/27 10:15:35;;;;;;;3.60;0.60;;;7.70;99.90;;;;;;5078573;28;20098;-38
2023/03/27 10:18:06;;;;;;;2.22;0.30;;;7.50;99.90;;;;;;5070506;28;20090;-39
2023/03/27 10:20:32;;;;;;;2.70;1.33;;;7.30;99.90;;;;;;5062238;28;20054;-39
2023/03/27 10:23:05;;;;;;;4.78;0.57;;;7.30;99.90;;;;;;5072567;28;20056;-39
2023/03/27 10:25:33;;;;;;;3.20;0.20;;;7.40;99.90;;;;;;5080006;28;20133;-40
2023/03/27 10:28:13;;;;;;;1.45;0.30;;;7.40;99.90;;;;;;5080864;28;20052;-41
2023/03/27 10:30:39;;;;;;;3.90;0.40;;;7.50;99.90;;;;;;5081728;28;20422;-41
2023/03/27 10:33:06;;;;;;;2.78;0.35;;;7.50;99.90;;;;;;5078007;28;20047;-41
2023/03/27 10:35:34;;;;;;;1.33;0.22;;;7.50;99.90;;;;;;5076523;28;20049;-41
2023/03/27 10:38:03;;;;;;;6.15;0.40;;;7.60;99.90;;;;;;5078001;28;20136;-41
2023/03/27 10:40:31;;;;;;;5.35;0.40;;;7.60;99.90;;;;;;5081115;28;20056;-42
2023/03/27 10:43:03;;;;;;;3.00;0.60;;;7.60;99.90;;;;;;5075068;28;20063;-42
2023/03/27 10:45:30;;;;;;;2.63;0.32;;;7.70;99.90;;;;;;5077716;28;20052;-40
2023/03/27 10:47:59;;;;;;;3.17;0.82;;;7.80;99.90;;;;;;5052896;28;20044;-42
2023/03/27 10:50:39;;;;;;;3.10;1.02;;;8.00;99.90;;;;;;5074608;28;20048;-44
2023/03/27 10:53:22;;;;;;;1.58;0.20;;;8.10;99.90;;;;;;5072101;28;20453;-42
2023/03/27 10:56:09;;;;;;;2.38;0.25;;;8.10;99.90;;;;;;5072658;28;20058;-41
2023/03/27 10:58:50;;;;;;;4.68;0.20;;;8.20;99.90;;;;;;5078725;28;20044;-41
2023/03/27 11:01:34;;;;;;;4.28;0.32;;;8.30;99.90;;;;;;5078277;28;20060;-41
2023/03/27 11:04:36;;;;;;;1.15;0.17;;;8.40;99.90;;;;;;5078854;28;20063;-42
2023/03/27 11:07:05;;;;;;;4.28;0.35;;;8.50;99.90;;;;;;5052690;28;20086;-39
2023/03/27 11:09:35;;;;;;;4.72;0.20;;;8.40;99.90;;;;;;5062623;28;21976;-42
2023/03/27 11:12:08;;;;;;;1.02;0.17;;;8.30;99.90;;;;;;5074848;28;20636;-41
2023/03/27 11:15:01;;;;;;;1.52;0.10;;;8.20;99.90;;;;;;5079312;28;20051;-41
2023/03/27 11:18:01;;;;;;;2.28;0.20;;;8.20;99.90;;;;;;5078301;28;20060;-39
2023/03/27 11:20:43;;;;;;;2.38;0.28;;;8.00;99.90;;;;;;5060255;28;20040;-42
2023/03/27 11:23:16;;;;;;;2.38;0.15;;;8.00;99.90;;;;;;5084341;28;20032;-40
2023/03/27 11:25:46;;;;;;;5.78;0.10;;;8.20;99.90;;;;;;5079540;28;20048;-44
2023/03/27 11:28:30;;;;;;;2.78;0.20;;;8.30;99.90;;;;;;5060759;28;20060;-40
2023/03/27 11:31:03;;;;;;;2.55;0.40;;;8.40;99.90;;;;;;5076423;28;20067;-39
2023/03/27 11:33:39;;;;;;;0.77;0.15;;;8.40;99.90;;;;;;5078124;28;20059;-40
2023/03/27 11:36:34;;;;;;;2.90;0.20;;;8.40;99.90;;;;;;5077269;28;20052;-39
2023/03/27 11:39:25;;;;;;;2.92;0.20;;;8.40;99.90;;;;;;5070105;28;20055;-40
2023/03/27 11:42:12;;;;;;;2.40;0.38;;;8.50;99.90;;;;;;5064187;28;20055;-40
2023/03/27 11:44:38;;;;;;;1.92;0.20;;;8.70;99.90;;;;;;5076621;28;20052;-40
2023/03/27 11:47:31;;;;;;;2.70;0.35;;;8.90;99.90;;;;;;5081565;28;20052;-40
2023/03/27 11:50:11;;;;;;;4.93;0.22;;;8.60;99.90;;;;;;5072016;28;20051;-40
2023/03/27 11:53:02;;;;;;;1.10;0.15;;;7.80;99.90;;;;;;5083763;28;20052;-40
2023/03/27 11:55:48;;;;;;;1.27;0.13;;;7.00;99.90;;;;;;5047283;28;20040;-37
2023/03/27 11:58:29;;;;;;;1.85;0.77;;;6.40;99.90;;;;;;5077691;28;20070;-37
2023/03/27 12:01:06;;;;;;;0.93;0.10;;;6.00;99.90;;;;;;5074265;28;20113;-37
2023/03/27 12:03:51;;;;;;;0.80;0.10;;;5.70;99.90;;;;;;5061590;28;20055;-37
2023/03/27 12:06:52;;;;;;;1.58;0.20;;;5.70;99.90;;;;;;5075502;28;20147;-37
2023/03/27 12:09:27;;;;;;;2.60;0.50;;;6.10;99.90;;;;;;5079738;28;20128;-37
2023/03/27 12:12:10;;;;;;;4.53;0.60;;;6.60;99.90;;;;;;5061736;28;20130;-37
2023/03/27 12:14:42;;;;;;;2.45;0.40;;;7.20;99.90;;;;;;5076191;28;20052;-37
2023/03/27 12:17:36;;;;;;;3.00;0.32;;;7.60;99.90;;;;;;5082124;28;20059;-38
2023/03/27 12:20:32;;;;;;;3.20;0.35;;;8.00;99.90;;;;;;5081141;28;20052;-37
2023/03/27 12:23:24;;;;;;;9.25;0.47;;;8.40;99.90;;;;;;5077226;28;20060;-36
2023/03/27 12:26:11;;;;;;;3.53;0.38;;;8.90;99.90;;;;;;5075554;28;20087;-36
2023/03/27 12:29:02;;;;;;;4.47;0.30;;;9.00;99.90;;;;;;5079769;28;20225;-37
2023/03/27 12:31:51;;;;;;;2.67;0.40;;;8.80;99.90;;;;;;5085491;28;20073;-36
2023/03/27 12:34:36;;;;;;;3.70;0.30;;;8.60;99.90;;;;;;5081644;28;20082;-41
2023/03/27 12:37:04;;;;;;;2.20;0.30;;;8.40;99.90;;;;;;5086231;28;20475;-42
2023/03/27 12:39:30;;;;;;;2.63;0.20;;;8.20;99.90;;;;;;5087180;28;20493;-42
2023/03/27 12:41:56;;;;;;;4.82;0.30;;;8.40;99.90;;;;;;5089383;28;20055;-41
2023/03/27 12:44:29;;;;;;;2.33;0.30;;;8.80;99.90;;;;;;5077399;28;20567;-45
2023/03/27 12:47:26;;;;;;;2.53;0.30;;;9.40;99.90;;;;;;5077875;28;20520;-43
2023/03/27 12:49:59;;;;;;;4.68;0.63;;;9.50;99.90;;;;;;5072702;28;21672;-42
2023/03/27 12:52:25;;;;;;;2.65;0.25;;;9.20;99.90;;;;;;5075716;28;20061;-43
2023/03/27 12:55:26;;;;;;;7.47;0.52;;;9.00;99.90;;;;;;5079123;28;20052;-42
2023/03/27 12:57:52;;;;;;;4.97;0.50;;;9.30;99.90;;;;;;5080906;28;20102;-42
2023/03/27 13:00:20;;;;;;;3.50;0.32;;;9.80;99.90;;;;;;5080856;28;20071;-41
2023/03/27 13:03:08;;;;;;;2.45;0.30;;;9.50;99.90;;;;;;5061438;28;20138;-42
2023/03/27 13:05:52;;;;;;;6.07;0.70;;;9.00;99.90;;;;;;5076757;28;20048;-41
2023/03/27 13:09:08;;;;;;;2.30;0.30;;;8.40;99.90;;;;;;5079404;28;20048;-42
2023/03/27 13:12:00;;;;;;;4.65;0.30;;;7.80;99.90;;;;;;5056734;28;20048;-46
2023/03/27 13:14:35;;;;;;;2.25;0.22;;;7.40;99.90;;;;;;5078439;28;20032;-42
2023/03/27 13:17:28;;;;;;;5.50;0.43;;;7.30;99.90;;;;;;5077236;28;20044;-44
2023/03/27 13:20:17;;;;;;;4.22;0.70;;;7.90;99.90;;;;;;5078491;28;20048;-41
2023/03/27 13:22:52;;;;;;;2.25;0.30;;;8.50;99.90;;;;;;5070333;28;20133;-37
2023/03/27 13:25:41;;;;;;;3.15;0.40;;;9.50;99.90;;;;;;5079070;28;20048;-37
2023/03/27 13:28:25;;;;;;;4.55;0.60;;;10.20;99.90;;;;;;5064871;28;20051;-37
2023/03/27 13:30:56;;;;;;;5.60;0.70;;;11.10;99.90;;;;;;5075778;28;20051;-37
2023/03/27 13:33:22;;;;;;;5.53;0.77;;;11.50;99.90;;;;;;5078182;28;20067;-36
2023/03/27 13:35:57;;;;;;;6.00;0.98;;;11.80;99.90;;;;;;5080745;28;20059;-37
2023/03/27 13:38:42;;;;;;;10.38;0.40;;;12.10;99.90;;;;;;5077663;28;20584;-36
2023/03/27 13:41:45;;;;;;;3.03;0.50;;;12.00;99.90;;;;;;5080057;28;20544;-36
2023/03/27 13:44:20;;;;;;;3.55;0.43;;;11.60;99.90;;;;;;5081594;28;20052;-37
2023/03/27 13:46:52;;;;;;;3.80;0.35;;;11.20;99.90;;;;;;5073184;28;20133;-37